Time;durP1;ratioP1;P1;durP2;ratioP2;P2;SDS_P1;SDS_P2;PMS_P1;PMS_P2;Temp;Humidity;BMP_temperature;BMP_pressure;BME280_temperature;BME280_humidity;BME280_pressure;Samples;Min_cycle;Max_cycle;Signal;HPM_P1;HPM_P2
2023/09/28 02:58:46;;;;;;;6.88;4.10;;;;;;;15.91;59.85;95181.22;5134308;27;20624;-67
2023/09/28 03:01:14;;;;;;;7.32;4.82;;;;;;;15.87;60.38;95172.84;5133258;28;20175;-68
2023/09/28 03:03:45;;;;;;;11.00;4.97;;;;;;;15.89;60.21;95172.44;5115161;28;20191;-67
2023/09/28 03:06:12;;;;;;;6.25;4.63;;;;;;;15.85;59.98;95172.41;5115318;28;20255;-67
2023/09/28 03:08:42;;;;;;;6.65;4.20;;;;;;;15.77;60.09;95175.53;5133467;28;20654;-70
2023/09/28 03:11:12;;;;;;;5.18;4.38;;;;;;;15.75;60.46;95180.66;5115345;28;20195;-67
2023/09/28 03:13:39;;;;;;;7.35;4.75;;;;;;;15.72;60.98;95175.84;5115311;28;20286;-67
2023/09/28 03:16:16;;;;;;;5.05;4.53;;;;;;;15.70;61.01;95172.69;5132896;28;20218;-68
2023/09/28 03:18:43;;;;;;;8.63;4.55;;;;;;;15.71;61.21;95177.84;5115645;28;20267;-67
2023/09/28 03:21:14;;;;;;;7.25;4.68;;;;;;;15.68;61.54;95172.25;5115083;28;20191;-67
2023/09/28 03:23:40;;;;;;;5.13;4.32;;;;;;;15.69;61.64;95171.09;5133056;28;20260;-67
2023/09/28 03:26:10;;;;;;;6.97;4.78;;;;;;;15.76;61.82;95174.72;5132893;28;20602;-67
2023/09/28 03:28:37;;;;;;;10.82;4.32;;;;;;;15.74;61.17;95170.72;5115179;28;20199;-67
2023/09/28 03:31:13;;;;;;;9.75;4.75;;;;;;;15.73;61.66;95175.50;5132421;28;20706;-67
2023/09/28 03:33:40;;;;;;;7.63;4.72;;;;;;;15.69;61.40;95171.88;5132611;28;20253;-67
2023/09/28 03:36:12;;;;;;;5.45;4.78;;;;;;;15.67;62.16;95167.88;5114732;28;20285;-67
2023/09/28 03:38:40;;;;;;;7.03;5.20;;;;;;;15.60;62.16;95174.94;5113843;28;20207;-67
2023/09/28 03:41:08;;;;;;;12.13;5.18;;;;;;;15.55;62.09;95166.94;5132799;28;20183;-67
2023/09/28 03:43:39;;;;;;;9.10;5.32;;;;;;;15.49;62.08;95167.69;5114745;28;20215;-67
2023/09/28 03:46:12;;;;;;;10.38;5.22;;;;;;;15.45;62.39;95173.19;5114527;28;20199;-67
2023/09/28 03:48:40;;;;;;;9.07;5.55;;;;;;;15.42;62.63;95185.06;5132502;28;20190;-67
2023/09/28 03:51:08;;;;;;;9.15;5.45;;;;;;;15.42;62.81;95179.50;5132774;28;20617;-67
2023/09/28 03:53:39;;;;;;;8.95;5.47;;;;;;;15.40;63.26;95179.91;5114187;28;20614;-67
2023/09/28 03:56:09;;;;;;;7.30;5.93;;;;;;;15.40;63.11;95184.69;5132290;28;20179;-67
2023/09/28 03:58:37;;;;;;;12.13;6.22;;;;;;;15.41;62.71;95183.50;5083156;28;20239;-66
2023/09/28 04:01:07;;;;;;;9.90;7.07;;;;;;;15.41;62.55;95180.72;5075685;28;20481;-66
2023/09/28 04:03:41;;;;;;;9.43;6.30;;;;;;;15.42;62.90;95185.06;5077259;28;20250;-66
2023/09/28 04:06:09;;;;;;;9.40;7.00;;;;;;;15.42;62.33;95187.84;5076942;28;20204;-65
2023/09/28 04:08:37;;;;;;;10.02;6.07;;;;;;;15.42;62.69;95182.28;5077500;28;20503;-66
2023/09/28 04:11:05;;;;;;;9.75;6.53;;;;;;;15.43;62.43;95180.31;5077478;28;20604;-66
2023/09/28 04:13:34;;;;;;;10.20;5.93;;;;;;;15.40;62.67;95177.13;5076486;28;20208;-66
2023/09/28 04:16:02;;;;;;;9.93;6.07;;;;;;;15.43;62.46;95181.09;5077344;28;20659;-66
2023/09/28 04:18:29;;;;;;;6.25;5.57;;;;;;;15.47;62.12;95178.38;5076933;28;20311;-66
2023/09/28 04:21:03;;;;;;;10.77;6.05;;;;;;;15.47;62.57;95179.19;5077343;28;20615;-66
2023/09/28 04:23:31;;;;;;;7.82;6.20;;;;;;;15.48;61.60;95189.13;5077542;28;20181;-66
2023/09/28 04:25:59;;;;;;;8.40;6.18;;;;;;;15.47;62.18;95181.97;5076615;28;20229;-66
2023/09/28 04:28:27;;;;;;;6.40;5.75;;;;;;;15.48;61.75;95188.31;5077380;28;20204;-66
2023/09/28 04:30:54;;;;;;;8.63;6.00;;;;;;;15.49;61.86;95184.34;5077241;28;20205;-66
2023/09/28 04:33:22;;;;;;;8.40;6.15;;;;;;;15.49;62.40;95185.16;5077492;28;20192;-66
2023/09/28 04:35:53;;;;;;;8.73;6.80;;;;;;;15.53;62.57;95180.41;5076226;28;20208;-66
2023/09/28 04:38:22;;;;;;;9.18;7.20;;;;;;;15.53;62.74;95197.09;5077098;28;20193;-66
2023/09/28 04:40:53;;;;;;;14.10;7.60;;;;;;;15.52;62.93;95192.72;5077160;28;20612;-66
2023/09/28 04:43:23;;;;;;;11.65;7.90;;;;;;;15.48;63.13;95194.69;5077176;28;20212;-66
2023/09/28 04:45:51;;;;;;;10.07;7.55;;;;;;;15.46;63.03;95191.47;5077138;28;20189;-66
2023/09/28 04:48:22;;;;;;;12.88;7.45;;;;;;;15.47;62.78;95198.66;5075980;28;20225;-66
2023/09/28 04:50:50;;;;;;;12.38;7.45;;;;;;;15.54;62.89;95203.47;5076744;28;20178;-66
2023/09/28 04:53:18;;;;;;;12.43;6.90;;;;;;;15.55;62.44;95202.28;5076113;28;20243;-65
2023/09/28 04:55:49;;;;;;;10.35;6.22;;;;;;;15.58;62.27;95201.53;5076872;28;20185;-65
2023/09/28 04:58:18;;;;;;;7.60;5.63;;;;;;;15.58;61.71;95201.53;5076529;28;20236;-65
2023/09/28 05:00:46;;;;;;;7.43;5.35;;;;;;;15.57;61.92;95202.69;5076607;28;20625;-65
2023/09/28 05:03:16;;;;;;;9.10;5.40;;;;;;;15.64;61.25;95213.88;5076428;28;20547;-65
2023/09/28 05:05:44;;;;;;;8.43;5.63;;;;;;;15.67;62.00;95210.38;5076427;28;20652;-65
2023/09/28 05:08:16;;;;;;;10.35;5.35;;;;;;;15.72;61.59;95210.03;5076320;28;20228;-65
2023/09/28 05:10:44;;;;;;;7.32;5.40;;;;;;;15.75;61.83;95208.47;5074747;28;20220;-65
2023/09/28 05:13:18;;;;;;;8.65;6.00;;;;;;;15.80;61.77;95216.47;5075867;28;20228;-65
2023/09/28 05:15:45;;;;;;;10.38;5.93;;;;;;;15.84;61.72;95211.75;5075525;28;20197;-65
2023/09/28 05:18:15;;;;;;;7.50;5.88;;;;;;;15.90;61.47;95210.19;5076183;28;20632;-65
2023/09/28 05:20:43;;;;;;;13.10;6.10;;;;;;;15.97;61.50;95215.81;5075988;28;20509;-65
2023/09/28 05:23:11;;;;;;;9.55;6.25;;;;;;;16.02;61.57;95214.69;5076272;28;20207;-65
2023/09/28 05:25:39;;;;;;;8.48;6.80;;;;;;;16.06;61.67;95219.09;5075426;28;20201;-66
2023/09/28 05:28:07;;;;;;;11.32;7.00;;;;;;;16.08;62.20;95221.47;5075886;28;20650;-65
2023/09/28 05:30:37;;;;;;;13.10;7.43;;;;;;;16.08;62.68;95218.69;5075627;28;20193;-66
2023/09/28 05:33:06;;;;;;;14.68;7.43;;;;;;;16.15;61.51;95220.75;5076089;28;20189;-65
2023/09/28 05:35:33;;;;;;;12.25;7.97;;;;;;;16.22;61.96;95229.16;5075104;28;20193;-65
2023/09/28 05:38:02;;;;;;;13.48;7.85;;;;;;;16.27;61.91;95223.25;5075093;28;20201;-65
2023/09/28 05:40:30;;;;;;;13.93;7.90;;;;;;;16.31;61.01;95227.63;5075339;28;20205;-65
2023/09/28 05:42:58;;;;;;;16.35;8.88;;;;;;;16.34;61.27;95228.84;5075717;28;20611;-65
2023/09/28 05:45:26;;;;;;;12.75;8.90;;;;;;;16.40;61.04;95232.06;5074805;28;20543;-66
2023/09/28 05:47:55;;;;;;;12.18;8.55;;;;;;;16.43;60.88;95231.28;5075430;28;20209;-65
2023/09/28 05:50:24;;;;;;;11.98;8.30;;;;;;;16.50;60.35;95228.56;5075118;28;20205;-65
2023/09/28 05:52:56;;;;;;;11.68;7.60;;;;;;;16.57;60.07;95226.63;5075467;28;20220;-65
2023/09/28 05:55:25;;;;;;;9.90;6.80;;;;;;;16.64;59.25;95230.66;5075087;28;20551;-65
2023/09/28 05:57:52;;;;;;;8.25;5.95;;;;;;;16.71;59.01;95234.28;5074905;28;20233;-65
2023/09/28 06:00:24;;;;;;;8.52;5.53;;;;;;;16.77;58.70;95231.94;5075341;28;20246;-65
2023/09/28 06:02:53;;;;;;;8.63;5.50;;;;;;;16.83;58.06;95238.75;5075454;28;20220;-65
2023/09/28 06:05:26;;;;;;;9.13;5.35;;;;;;;16.88;57.60;95230.00;5075278;28;20585;-65
2023/09/28 06:07:54;;;;;;;6.07;4.95;;;;;;;16.92;56.34;95232.81;5074539;28;20232;-66
2023/09/28 06:10:22;;;;;;;6.30;4.53;;;;;;;16.96;56.60;95228.88;5074860;28;20201;-66
2023/09/28 06:12:49;;;;;;;4.50;4.10;;;;;;;17.02;56.31;95232.06;5074854;28;20205;-65
2023/09/28 06:15:17;;;;;;;7.00;4.30;;;;;;;17.05;56.03;95229.31;5074540;28;20207;-65
2023/09/28 06:17:46;;;;;;;6.47;4.72;;;;;;;17.08;55.68;95222.16;5075364;28;20181;-65
2023/09/28 06:20:17;;;;;;;8.43;4.55;;;;;;;17.09;55.48;95221.75;5074428;28;20201;-65
2023/09/28 06:22:45;;;;;;;5.18;4.28;;;;;;;17.16;55.22;95229.34;5075417;28;20235;-65
2023/09/28 06:25:16;;;;;;;10.27;5.07;;;;;;;17.20;55.00;95229.38;5075322;28;20200;-65
2023/09/28 06:27:44;;;;;;;6.28;3.72;;;;;;;17.23;54.61;95226.59;5075224;28;20263;-65
2023/09/28 06:30:12;;;;;;;8.35;4.38;;;;;;;17.27;54.94;95229.41;5075078;28;20188;-65
2023/09/28 06:32:41;;;;;;;5.57;3.90;;;;;;;17.31;54.28;95230.22;5074892;28;20195;-66
2023/09/28 06:35:10;;;;;;;5.68;4.28;;;;;;;17.38;54.73;95226.66;5075348;28;20219;-66
2023/09/28 06:37:38;;;;;;;4.32;3.60;;;;;;;17.40;54.51;95235.44;5075218;28;20200;-65
2023/09/28 06:40:12;;;;;;;6.55;3.70;;;;;;;17.40;53.81;95232.66;5074853;28;20185;-65
2023/09/28 06:42:40;;;;;;;5.20;3.70;;;;;;;17.45;54.06;95233.06;5075199;28;20203;-65
2023/09/28 06:45:09;;;;;;;5.25;4.45;;;;;;;17.52;54.17;95237.84;5075273;28;20181;-65
2023/09/28 06:47:37;;;;;;;4.55;3.55;;;;;;;17.58;54.03;95241.88;5074034;28;20217;-65
2023/09/28 06:50:05;;;;;;;5.88;3.97;;;;;;;17.62;54.00;95245.47;5074169;28;20214;-65
2023/09/28 06:52:34;;;;;;;6.07;3.53;;;;;;;17.63;53.54;95252.63;5074609;28;20250;-65
2023/09/28 06:55:04;;;;;;;5.35;4.00;;;;;;;17.66;53.13;95251.06;5074828;28;20280;-65
2023/09/28 06:57:33;;;;;;;6.00;4.03;;;;;;;17.71;53.47;95253.44;5074058;28;20233;-65
2023/09/28 07:00:08;;;;;;;4.93;3.85;;;;;;;17.73;53.38;95246.28;5074160;28;20297;-65
2023/09/28 07:02:37;;;;;;;5.13;4.15;;;;;;;17.77;53.75;95243.53;5074638;28;20589;-65
2023/09/28 07:05:08;;;;;;;4.38;3.92;;;;;;;17.80;53.55;95248.34;5073989;28;20193;-65
2023/09/28 07:07:39;;;;;;;6.13;3.90;;;;;;;17.87;53.30;95253.94;5073982;28;20225;-65
2023/09/28 07:10:10;;;;;;;4.78;3.92;;;;;;;17.90;53.40;95255.09;5075201;28;20196;-65
2023/09/28 07:12:40;;;;;;;6.30;3.75;;;;;;;17.90;53.01;95247.56;5074473;28;20255;-65
2023/09/28 07:15:09;;;;;;;7.00;4.10;;;;;;;17.91;53.26;95259.50;5073938;28;20220;-65
2023/09/28 07:17:37;;;;;;;6.10;3.58;;;;;;;17.91;53.50;95249.16;5073772;28;20219;-65
2023/09/28 07:20:11;;;;;;;4.50;4.05;;;;;;;17.96;54.06;95250.75;5074797;28;20192;-65
2023/09/28 07:22:39;;;;;;;6.00;4.00;;;;;;;18.01;54.20;95255.91;5074556;28;20604;-65
2023/09/28 07:25:07;;;;;;;6.80;3.97;;;;;;;18.02;54.23;95251.97;5073658;28;20203;-65
2023/09/28 07:27:35;;;;;;;5.47;3.58;;;;;;;18.05;54.38;95248.38;5074705;28;20223;-65
2023/09/28 07:30:11;;;;;;;8.27;3.83;;;;;;;18.08;54.50;95247.56;5074696;28;20194;-65
2023/09/28 07:32:42;;;;;;;5.57;4.00;;;;;;;18.13;54.61;95249.97;5073764;28;20201;-65
2023/09/28 07:35:10;;;;;;;7.75;4.07;;;;;;;18.14;54.33;95256.34;5078379;28;20517;-65
2023/09/28 07:37:38;;;;;;;4.60;3.67;;;;;;;18.15;54.80;95249.56;5077220;28;20197;-65
2023/09/28 07:40:12;;;;;;;5.60;4.15;;;;;;;18.17;54.35;95253.56;5078459;28;20173;-65
2023/09/28 07:42:40;;;;;;;6.07;4.05;;;;;;;18.19;54.62;95242.00;5078094;28;20224;-65
2023/09/28 07:45:11;;;;;;;6.97;4.03;;;;;;;18.22;54.33;95242.00;5077960;28;21305;-65
2023/09/28 07:47:39;;;;;;;8.68;3.67;;;;;;;18.29;54.75;95242.00;5077945;28;20212;-66
2023/09/28 07:50:10;;;;;;;4.30;3.70;;;;;;;18.34;54.60;95249.19;5077222;28;20201;-65
2023/09/28 07:52:39;;;;;;;5.65;3.85;;;;;;;18.49;54.55;95255.56;5077087;28;20279;-65
2023/09/28 07:55:08;;;;;;;5.47;4.10;;;;;;;18.64;53.95;95248.78;5078187;28;20185;-65
2023/09/28 07:57:39;;;;;;;5.43;3.75;;;;;;;18.68;53.71;95246.78;5076968;28;20228;-65
2023/09/28 08:00:17;;;;;;;5.65;4.43;;;;;;;18.68;53.61;95248.78;5078015;28;20193;-65
2023/09/28 08:02:44;;;;;;;6.68;4.00;;;;;;;18.66;52.98;95249.16;5077477;28;20291;-65
2023/09/28 08:05:31;;;;;;;6.22;3.95;;;;;;;18.69;53.10;95242.75;5077885;28;20193;-65
2023/09/28 08:07:59;;;;;;;5.15;4.10;;;;;;;18.76;53.47;95245.59;5076641;28;20216;-65
2023/09/28 08:10:27;;;;;;;11.10;3.95;;;;;;;18.82;53.19;95248.00;5077327;28;20199;-65
2023/09/28 08:12:56;;;;;;;5.78;3.70;;;;;;;18.88;52.87;95241.59;5077780;28;20193;-66
2023/09/28 08:15:25;;;;;;;5.32;3.63;;;;;;;18.93;52.85;95252.34;5077814;28;20195;-66
2023/09/28 08:17:53;;;;;;;7.10;3.78;;;;;;;18.99;52.70;95252.72;5077238;28;20259;-66
2023/09/28 08:20:26;;;;;;;6.30;3.92;;;;;;;18.98;52.37;95251.94;5076420;28;20205;-65
2023/09/28 08:22:54;;;;;;;4.32;3.85;;;;;;;19.03;53.05;95239.56;5077661;28;20190;-66
2023/09/28 08:25:24;;;;;;;5.55;3.35;;;;;;;19.14;52.98;95239.53;5077326;28;20193;-66
2023/09/28 08:27:52;;;;;;;7.40;3.90;;;;;;;19.26;52.37;95241.88;5077321;28;20213;-65
2023/09/28 08:30:22;;;;;;;6.88;3.60;;;;;;;19.38;52.41;95243.41;5077473;28;20185;-65
2023/09/28 08:32:55;;;;;;;5.63;3.67;;;;;;;19.53;51.56;95244.94;5076640;28;20262;-65
2023/09/28 08:35:25;;;;;;;8.98;3.53;;;;;;;19.74;51.83;95237.69;5077143;28;20188;-65
2023/09/28 08:37:54;;;;;;;4.78;3.20;;;;;;;19.91;51.38;95237.59;5077249;28;20181;-65
2023/09/28 08:40:23;;;;;;;8.00;3.50;;;;;;;20.08;50.48;95241.50;5076983;28;20196;-65
2023/09/28 08:42:51;;;;;;;6.10;3.33;;;;;;;20.30;49.45;95235.69;5076767;28;20286;-65
2023/09/28 08:45:23;;;;;;;5.18;3.47;;;;;;;20.51;49.47;95234.78;5075878;28;20200;-65
2023/09/28 08:47:58;;;;;;;6.00;3.53;;;;;;;20.73;48.46;95224.16;5076098;28;20242;-65
2023/09/28 08:50:36;;;;;;;4.95;3.63;;;;;;;20.96;48.42;95227.16;5076834;28;20220;-65
2023/09/28 08:53:05;;;;;;;7.03;3.38;;;;;;;21.19;47.42;95225.69;5075773;28;20207;-65
2023/09/28 08:55:34;;;;;;;5.22;3.45;;;;;;;21.33;47.16;95231.97;5077015;28;20189;-65
2023/09/28 08:58:03;;;;;;;7.05;3.40;;;;;;;21.36;46.94;95231.13;5075814;28;20225;-65
2023/09/28 09:00:34;;;;;;;6.00;3.45;;;;;;;21.35;46.62;95228.72;5076686;28;20181;-65
2023/09/28 09:03:08;;;;;;;5.78;3.70;;;;;;;21.39;45.63;95229.50;5076722;28;20193;-66
2023/09/28 09:05:41;;;;;;;5.78;3.10;;;;;;;21.43;45.47;95232.28;5075617;28;20197;-65
2023/09/28 09:08:09;;;;;;;3.85;3.00;;;;;;;21.49;45.23;95225.75;5075751;28;20274;-65
2023/09/28 09:10:38;;;;;;;5.50;3.42;;;;;;;21.61;45.30;95218.81;5076427;28;20182;-66
2023/09/28 09:13:08;;;;;;;5.15;3.45;;;;;;;21.65;45.58;95235.59;5076342;28;20181;-65
2023/09/28 09:15:40;;;;;;;5.80;3.30;;;;;;;21.58;44.62;95228.06;5076549;28;20193;-65
2023/09/28 09:18:18;;;;;;;8.73;3.47;;;;;;;21.46;45.44;95223.81;5076477;28;20185;-65
2023/09/28 09:20:49;;;;;;;3.75;3.05;;;;;;;21.55;46.01;95223.28;5076193;28;20254;-65
2023/09/28 09:23:18;;;;;;;4.72;3.15;;;;;;;21.77;45.43;95230.19;5076424;28;20686;-65
2023/09/28 09:25:48;;;;;;;4.80;3.47;;;;;;;21.95;45.05;95218.72;5075462;28;20613;-65
2023/09/28 09:28:29;;;;;;;6.07;2.95;;;;;;;22.13;44.83;95224.06;5076196;28;20243;-65
2023/09/28 09:30:59;;;;;;;5.30;3.30;;;;;;;22.26;44.69;95224.31;5075363;28;20296;-65
2023/09/28 09:33:29;;;;;;;5.93;2.88;;;;;;;22.38;44.65;95208.88;5075379;28;20287;-65
2023/09/28 09:35:57;;;;;;;7.47;3.70;;;;;;;22.55;44.77;95207.81;5075151;28;20200;-65
2023/09/28 09:38:29;;;;;;;6.78;3.42;;;;;;;22.75;44.34;95207.84;5075879;28;20185;-65
2023/09/28 09:40:59;;;;;;;4.35;3.75;;;;;;;22.80;43.19;95216.59;5075494;28;20211;-65
2023/09/28 09:43:31;;;;;;;4.10;3.30;;;;;;;22.71;43.28;95210.72;5074757;28;20193;-65
2023/09/28 09:46:02;;;;;;;5.38;3.60;;;;;;;22.52;43.80;95217.09;5075899;28;20182;-65
2023/09/28 09:48:40;;;;;;;4.00;3.50;;;;;;;22.67;44.04;95203.56;5075503;28;20223;-65
2023/09/28 09:51:11;;;;;;;5.13;3.60;;;;;;;22.86;43.78;95202.81;5075057;28;20215;-66
2023/09/28 09:53:41;;;;;;;6.90;4.00;;;;;;;23.01;42.88;95198.53;5074913;28;20201;-66
2023/09/28 09:56:10;;;;;;;7.22;3.97;;;;;;;23.12;43.24;95198.34;5074346;28;20208;-66
2023/09/28 09:58:41;;;;;;;6.15;3.85;;;;;;;23.26;42.95;95194.44;5074837;28;20239;-65
2023/09/28 10:01:12;;;;;;;3.58;3.28;;;;;;;23.32;42.60;95189.91;5074849;28;20205;-65
2023/09/28 10:03:44;;;;;;;5.90;3.83;;;;;;;23.22;42.60;95191.72;5074806;28;20258;-66
2023/09/28 10:06:15;;;;;;;3.65;3.20;;;;;;;23.26;42.88;95189.63;5075570;28;20189;-65
2023/09/28 10:08:45;;;;;;;6.38;3.65;;;;;;;23.25;43.26;95184.44;5074256;28;20217;-65
2023/09/28 10:11:17;;;;;;;4.85;3.20;;;;;;;23.47;42.27;95188.38;5074590;28;20207;-65
2023/09/28 10:13:48;;;;;;;8.15;3.78;;;;;;;23.40;42.38;95190.56;5075530;28;20188;-65
2023/09/28 10:16:18;;;;;;;5.80;4.28;;;;;;;23.21;42.72;95187.31;5074640;28;20220;-66
2023/09/28 10:18:50;;;;;;;8.43;3.63;;;;;;;23.08;42.85;95188.38;5074921;28;20207;-66
2023/09/28 10:21:18;;;;;;;9.50;5.18;;;;;;;23.09;44.27;95192.78;5074239;28;20203;-66
2023/09/28 10:23:49;;;;;;;6.05;4.30;;;;;;;22.85;44.87;95197.63;5074221;28;20193;-66
2023/09/28 10:26:20;;;;;;;5.10;4.07;;;;;;;22.44;45.88;95193.09;5075119;28;20196;-66
2023/09/28 10:29:04;;;;;;;7.35;4.35;;;;;;;22.10;47.08;95194.81;5075307;28;20240;-66
2023/09/28 10:31:34;;;;;;;5.03;4.10;;;;;;;21.90;47.88;95191.13;5075340;28;20196;-66
2023/09/28 10:34:05;;;;;;;5.32;3.90;;;;;;;21.74;47.80;95197.34;5074911;28;20231;-66
2023/09/28 10:36:35;;;;;;;4.18;3.80;;;;;;;21.56;48.21;95191.97;5074992;28;20181;-65
2023/09/28 10:39:14;;;;;;;5.85;4.07;;;;;;;21.53;48.62;95192.03;5074450;28;20208;-66
2023/09/28 10:41:50;;;;;;;6.47;3.70;;;;;;;21.58;49.25;95180.34;5074841;28;20189;-66
2023/09/28 10:44:19;;;;;;;5.95;4.00;;;;;;;22.03;49.46;95175.25;5075596;28;20185;-66
2023/09/28 10:46:51;;;;;;;4.95;3.65;;;;;;;22.50;48.92;95175.34;5074235;28;20621;-65
2023/09/28 10:49:28;;;;;;;6.55;3.70;;;;;;;22.85;46.58;95167.50;5074023;28;20217;-65
2023/09/28 10:51:57;;;;;;;6.07;4.22;;;;;;;23.05;46.40;95161.91;5074174;28;20209;-65
2023/09/28 10:54:25;;;;;;;7.15;4.40;;;;;;;23.26;45.52;95172.72;5075272;28;20189;-65
2023/09/28 10:56:53;;;;;;;4.72;3.70;;;;;;;23.34;44.88;95164.94;5073979;28;20236;-65
2023/09/28 10:59:24;;;;;;;4.22;3.58;;;;;;;23.44;43.77;95163.91;5074059;28;20271;-65
2023/09/28 11:01:53;;;;;;;7.30;3.50;;;;;;;23.52;44.54;95170.97;5074892;28;20224;-65
2023/09/28 11:04:24;;;;;;;7.00;3.90;;;;;;;23.61;44.25;95164.00;5075454;28;20181;-65
2023/09/28 11:06:55;;;;;;;4.60;3.33;;;;;;;23.65;43.82;95168.31;5074707;28;20646;-65
2023/09/28 11:09:24;;;;;;;5.75;3.63;;;;;;;23.70;43.95;95165.00;5076373;28;20213;-65
2023/09/28 11:11:53;;;;;;;7.70;3.80;;;;;;;23.77;43.75;95162.03;5078583;28;20181;-66
2023/09/28 11:14:25;;;;;;;4.90;4.40;;;;;;;23.84;43.39;95163.09;5078589;28;20195;-66
2023/09/28 11:16:53;;;;;;;3.90;3.45;;;;;;;23.96;44.03;95157.56;5078870;28;20186;-66
2023/09/28 11:19:24;;;;;;;3.75;3.38;;;;;;;24.03;43.58;95165.84;5078788;28;20191;-65
2023/09/28 11:21:56;;;;;;;5.85;3.88;;;;;;;23.81;43.76;95156.31;5078424;28;20589;-65
2023/09/28 11:24:23;;;;;;;4.75;3.90;;;;;;;23.74;43.96;95154.44;5078859;28;20287;-65
2023/09/28 11:26:53;;;;;;;5.70;3.65;;;;;;;23.57;44.10;95149.16;5077944;28;20197;-65
2023/09/28 11:29:23;;;;;;;5.57;3.88;;;;;;;23.41;43.99;95156.34;5078529;28;20228;-65
2023/09/28 11:31:54;;;;;;;5.53;3.78;;;;;;;23.29;43.84;95157.00;5078363;28;20205;-65
2023/09/28 11:34:33;;;;;;;6.18;3.38;;;;;;;23.14;44.73;95159.31;5077714;28;20236;-66
2023/09/28 11:37:02;;;;;;;6.55;3.90;;;;;;;23.02;45.03;95157.13;5077939;28;20235;-65
2023/09/28 11:39:30;;;;;;;5.00;3.72;;;;;;;22.88;45.21;95158.19;5077559;28;20193;-65
2023/09/28 11:41:59;;;;;;;5.00;4.00;;;;;;;22.66;45.04;95166.25;5078025;28;20182;-66
2023/09/28 11:44:28;;;;;;;5.32;3.60;;;;;;;22.53;45.34;95160.44;5077788;28;20277;-65
2023/09/28 11:46:56;;;;;;;6.72;3.83;;;;;;;22.47;45.66;95159.31;5077339;28;20201;-65
2023/09/28 11:49:26;;;;;;;4.15;3.72;;;;;;;22.42;45.74;95159.03;5078159;28;20205;-65
2023/09/28 11:51:55;;;;;;;4.97;3.53;;;;;;;22.34;45.97;95164.00;5078120;28;20212;-66
2023/09/28 11:54:24;;;;;;;5.50;3.58;;;;;;;22.41;45.78;95157.47;5077810;28;20204;-65
2023/09/28 11:56:53;;;;;;;5.82;3.60;;;;;;;22.46;45.52;95159.75;5086546;28;20243;-65
2023/09/28 11:59:21;;;;;;;5.30;3.60;;;;;;;22.50;45.54;95161.28;5118667;28;20180;-65
2023/09/28 12:01:51;;;;;;;4.95;3.75;;;;;;;22.60;46.01;95156.72;5118399;28;20176;-65
2023/09/28 12:04:20;;;;;;;7.28;3.50;;;;;;;22.82;44.85;95155.09;5100953;28;20202;-66
2023/09/28 12:06:51;;;;;;;4.78;3.95;;;;;;;22.95;44.56;95148.84;5118600;28;20286;-66
2023/09/28 12:09:19;;;;;;;5.28;4.30;;;;;;;23.11;44.69;95151.75;5101131;28;20296;-66
2023/09/28 12:11:53;;;;;;;3.70;3.40;;;;;;;23.14;45.06;95153.69;5118486;28;20220;-66
2023/09/28 12:14:24;;;;;;;4.25;3.17;;;;;;;23.14;45.20;95145.25;5118096;28;20199;-65
2023/09/28 12:16:54;;;;;;;3.85;3.38;;;;;;;23.16;44.97;95150.44;5100883;28;20252;-65
2023/09/28 12:19:22;;;;;;;5.07;3.53;;;;;;;23.04;45.22;95140.63;5117619;28;20215;-65
2023/09/28 12:21:51;;;;;;;4.40;3.50;;;;;;;22.92;45.40;95146.91;5117796;28;20207;-65
2023/09/28 12:24:22;;;;;;;4.95;3.85;;;;;;;22.82;45.68;95149.47;5100375;28;20202;-65
2023/09/28 12:26:54;;;;;;;6.47;3.70;;;;;;;22.73;45.91;95142.81;5118187;28;20206;-65
2023/09/28 12:29:23;;;;;;;5.07;3.30;;;;;;;22.76;45.98;95142.72;5099968;28;20302;-65
2023/09/28 12:31:54;;;;;;;5.70;3.50;;;;;;;22.91;45.38;95134.81;5118013;28;20211;-66
2023/09/28 12:34:21;;;;;;;5.38;3.53;;;;;;;23.11;45.51;95139.69;5117985;28;20204;-66
2023/09/28 12:36:57;;;;;;;5.82;3.40;;;;;;;23.28;44.37;95138.56;5118006;28;20180;-66
2023/09/28 12:39:25;;;;;;;7.80;5.20;;;;;;;23.45;44.13;95137.34;5100312;28;20191;-65
2023/09/28 12:41:58;;;;;;;6.50;4.03;;;;;;;23.51;43.00;95141.25;5099635;28;20294;-65
2023/09/28 12:44:28;;;;;;;5.07;3.65;;;;;;;23.45;43.29;95137.34;5117810;28;20188;-65
2023/09/28 12:46:57;;;;;;;8.55;4.20;;;;;;;23.32;43.35;95141.28;5117447;28;20192;-66
2023/09/28 12:49:25;;;;;;;5.93;3.90;;;;;;;23.06;43.54;95136.19;5117348;28;20211;-66
2023/09/28 12:51:53;;;;;;;5.05;4.05;;;;;;;23.03;44.15;95136.25;5099807;28;20245;-66
2023/09/28 12:54:23;;;;;;;4.50;4.03;;;;;;;23.12;44.14;95136.44;5117963;28;20198;-65
2023/09/28 12:56:52;;;;;;;5.30;3.70;;;;;;;23.16;44.43;95128.72;5092112;28;20228;-66
2023/09/28 12:59:21;;;;;;;3.60;3.30;;;;;;;23.20;44.05;95131.47;5076592;28;20189;-66
2023/09/28 13:01:51;;;;;;;4.10;3.70;;;;;;;23.18;43.84;95128.31;5075250;28;20296;-66
2023/09/28 13:04:19;;;;;;;5.20;3.58;;;;;;;23.25;44.18;95136.59;5076844;28;20199;-66
2023/09/28 13:06:47;;;;;;;5.07;3.72;;;;;;;23.21;43.76;95128.22;5076747;28;20207;-66
2023/09/28 13:09:18;;;;;;;4.47;3.65;;;;;;;23.19;43.83;95135.50;5075692;28;20292;-66
2023/09/28 13:11:46;;;;;;;3.97;3.33;;;;;;;23.21;44.06;95133.06;5076598;28;20193;-65
2023/09/28 13:14:18;;;;;;;6.00;3.30;;;;;;;23.18;44.01;95131.91;5076593;28;20235;-65
2023/09/28 13:16:51;;;;;;;6.22;3.60;;;;;;;23.11;44.33;95131.25;5076057;28;20203;-65
2023/09/28 13:19:19;;;;;;;4.93;3.60;;;;;;;23.01;44.08;95133.84;5075690;28;20201;-66
2023/09/28 13:21:50;;;;;;;4.75;3.72;;;;;;;22.96;43.82;95134.38;5075342;28;20544;-66
2023/09/28 13:24:18;;;;;;;5.93;3.80;;;;;;;22.83;44.45;95130.56;5076023;28;20287;-66
2023/09/28 13:26:47;;;;;;;5.07;3.53;;;;;;;22.80;44.96;95139.84;5076564;28;20193;-66
2023/09/28 13:29:17;;;;;;;5.75;3.60;;;;;;;22.90;44.86;95133.25;5075546;28;20205;-65
2023/09/28 13:31:47;;;;;;;6.05;4.60;;;;;;;22.93;44.23;95138.03;5075400;28;20193;-66
2023/09/28 13:34:19;;;;;;;6.38;4.50;;;;;;;23.03;44.56;95131.41;5074920;28;20243;-66
2023/09/28 13:36:48;;;;;;;5.80;3.95;;;;;;;23.16;44.21;95128.72;5075898;28;20596;-66
2023/09/28 13:39:27;;;;;;;5.97;3.60;;;;;;;23.21;44.10;95130.25;5075315;28;20244;-66
2023/09/28 13:41:57;;;;;;;3.67;3.38;;;;;;;23.05;44.27;95128.94;5076011;28;20181;-66
2023/09/28 13:44:26;;;;;;;5.03;3.55;;;;;;;22.98;45.20;95133.91;5075705;28;20193;-66
2023/09/28 13:46:55;;;;;;;5.35;3.78;;;;;;;22.94;44.91;95138.81;5076412;28;20205;-65
2023/09/28 13:49:25;;;;;;;3.92;3.53;;;;;;;22.92;45.15;95127.22;5075126;28;20201;-65
2023/09/28 13:51:57;;;;;;;5.03;3.13;;;;;;;23.01;44.67;95127.44;5074992;28;20285;-66
2023/09/28 13:54:25;;;;;;;6.38;3.70;;;;;;;23.03;44.31;95127.81;5075792;28;20227;-66
2023/09/28 13:56:58;;;;;;;7.07;3.88;;;;;;;23.02;44.35;95135.47;5074689;28;20237;-65
2023/09/28 13:59:26;;;;;;;4.43;3.47;;;;;;;23.07;43.93;95136.97;5075817;28;20189;-65
2023/09/28 14:01:54;;;;;;;6.90;3.20;;;;;;;23.14;43.88;95127.59;5074834;28;20204;-65
2023/09/28 14:04:26;;;;;;;4.82;3.60;;;;;;;23.13;43.34;95126.81;5075670;28;20185;-65
2023/09/28 14:06:55;;;;;;;4.60;3.50;;;;;;;22.91;44.04;95137.63;5075622;28;20207;-66
2023/09/28 14:09:25;;;;;;;4.63;3.63;;;;;;;22.76;44.50;95130.69;5074908;28;20250;-66
2023/09/28 14:11:53;;;;;;;4.43;3.50;;;;;;;22.74;44.49;95135.97;5074492;28;20194;-66
2023/09/28 14:14:22;;;;;;;6.57;3.72;;;;;;;22.66;44.85;95132.50;5075545;28;20185;-66
2023/09/28 14:16:51;;;;;;;4.35;3.65;;;;;;;22.63;44.86;95130.56;5074805;28;20192;-66
2023/09/28 14:19:20;;;;;;;5.75;4.97;;;;;;;22.56;45.18;95136.31;5074658;28;20229;-66
2023/09/28 14:21:53;;;;;;;7.28;4.32;;;;;;;22.54;45.43;95136.72;5074164;28;20200;-66
2023/09/28 14:24:26;;;;;;;5.03;3.85;;;;;;;22.52;45.53;95141.19;5075061;28;20569;-66
2023/09/28 14:26:55;;;;;;;6.38;4.43;;;;;;;22.51;45.46;95142.41;5074425;28;20232;-66
2023/09/28 14:29:23;;;;;;;6.43;4.10;;;;;;;22.50;45.67;95146.44;5075078;28;20213;-66
2023/09/28 14:31:52;;;;;;;3.55;3.22;;;;;;;22.48;45.32;95151.72;5074361;28;20196;-66
2023/09/28 14:34:21;;;;;;;4.38;3.85;;;;;;;22.42;45.84;95144.97;5074347;28;20201;-66
2023/09/28 14:36:54;;;;;;;6.65;3.75;;;;;;;22.41;45.43;95151.84;5074816;28;20189;-66
2023/09/28 14:39:24;;;;;;;4.15;3.75;;;;;;;22.45;45.69;95156.16;5075392;28;20190;-66
2023/09/28 14:41:51;;;;;;;5.63;4.07;;;;;;;22.45;45.55;95163.81;5074878;28;20217;-66